sensor_id;sensor_type;location;lat;lon;timestamp;P1;durP1;ratioP1;P2;durP2;ratioP2
25824;SDS011;13658;44.534;18.694;2023-06-22T00:02:17;36.78;;;32.50;;
25824;SDS011;13658;44.534;18.694;2023-06-22T00:04:43;36.60;;;32.70;;
25824;SDS011;13658;44.534;18.694;2023-06-22T00:07:09;35.42;;;31.73;;
25824;SDS011;13658;44.534;18.694;2023-06-22T00:09:35;37.85;;;33.30;;
25824;SDS011;13658;44.534;18.694;2023-06-22T00:12:02;36.33;;;32.53;;
25824;SDS011;13658;44.534;18.694;2023-06-22T00:14:28;35.58;;;31.75;;
25824;SDS011;13658;44.534;18.694;2023-06-22T00:16:54;36.42;;;31.00;;
25824;SDS011;13658;44.534;18.694;2023-06-22T00:19:22;36.10;;;32.13;;
25824;SDS011;13658;44.534;18.694;2023-06-22T00:21:49;37.75;;;33.70;;
25824;SDS011;13658;44.534;18.694;2023-06-22T00:24:21;36.67;;;32.75;;
25824;SDS011;13658;44.534;18.694;2023-06-22T00:26:48;36.00;;;31.95;;
25824;SDS011;13658;44.534;18.694;2023-06-22T00:29:15;34.83;;;31.13;;
25824;SDS011;13658;44.534;18.694;2023-06-22T00:31:41;38.05;;;31.20;;
25824;SDS011;13658;44.534;18.694;2023-06-22T00:34:07;34.75;;;31.05;;
25824;SDS011;13658;44.534;18.694;2023-06-22T00:36:34;35.63;;;31.92;;
25824;SDS011;13658;44.534;18.694;2023-06-22T00:39:02;36.90;;;31.90;;
25824;SDS011;13658;44.534;18.694;2023-06-22T00:41:29;36.38;;;32.47;;
25824;SDS011;13658;44.534;18.694;2023-06-22T00:43:56;36.95;;;31.77;;
25824;SDS011;13658;44.534;18.694;2023-06-22T00:46:23;38.95;;;33.33;;
25824;SDS011;13658;44.534;18.694;2023-06-22T00:48:50;36.97;;;33.17;;
25824;SDS011;13658;44.534;18.694;2023-06-22T00:51:17;36.05;;;32.20;;
25824;SDS011;13658;44.534;18.694;2023-06-22T00:53:45;35.97;;;32.25;;
25824;SDS011;13658;44.534;18.694;2023-06-22T00:56:12;36.97;;;33.00;;
25824;SDS011;13658;44.534;18.694;2023-06-22T00:58:39;37.28;;;32.97;;
25824;SDS011;13658;44.534;18.694;2023-06-22T01:01:06;35.97;;;32.17;;
25824;SDS011;13658;44.534;18.694;2023-06-22T01:03:33;39.58;;;33.60;;
25824;SDS011;13658;44.534;18.694;2023-06-22T01:06:02;37.83;;;33.13;;
25824;SDS011;13658;44.534;18.694;2023-06-22T01:08:51;38.22;;;32.63;;
25824;SDS011;13658;44.534;18.694;2023-06-22T01:11:28;38.65;;;34.40;;
25824;SDS011;13658;44.534;18.694;2023-06-22T01:14:37;36.95;;;33.05;;
25824;SDS011;13658;44.534;18.694;2023-06-22T01:17:12;38.22;;;33.92;;
25824;SDS011;13658;44.534;18.694;2023-06-22T01:22:31;39.80;;;34.17;;
25824;SDS011;13658;44.534;18.694;2023-06-22T01:30:43;40.03;;;33.78;;
25824;SDS011;13658;44.534;18.694;2023-06-22T01:33:12;38.17;;;32.97;;
25824;SDS011;13658;44.534;18.694;2023-06-22T01:35:39;37.13;;;33.22;;
25824;SDS011;13658;44.534;18.694;2023-06-22T01:38:06;37.78;;;33.40;;
25824;SDS011;13658;44.534;18.694;2023-06-22T01:40:33;36.92;;;32.85;;
25824;SDS011;13658;44.534;18.694;2023-06-22T01:43:00;37.90;;;33.80;;
25824;SDS011;13658;44.534;18.694;2023-06-22T01:45:27;39.25;;;34.70;;
25824;SDS011;13658;44.534;18.694;2023-06-22T01:47:53;38.58;;;34.45;;
25824;SDS011;13658;44.534;18.694;2023-06-22T01:50:20;41.60;;;37.05;;
25824;SDS011;13658;44.534;18.694;2023-06-22T01:52:48;40.10;;;35.72;;
25824;SDS011;13658;44.534;18.694;2023-06-22T01:55:14;40.50;;;35.90;;
25824;SDS011;13658;44.534;18.694;2023-06-22T01:57:40;40.45;;;34.97;;
25824;SDS011;13658;44.534;18.694;2023-06-22T02:00:13;39.17;;;34.95;;
25824;SDS011;13658;44.534;18.694;2023-06-22T02:03:02;41.72;;;35.42;;
25824;SDS011;13658;44.534;18.694;2023-06-22T02:05:38;43.17;;;36.70;;
25824;SDS011;13658;44.534;18.694;2023-06-22T02:08:11;41.20;;;35.70;;
25824;SDS011;13658;44.534;18.694;2023-06-22T02:10:43;39.95;;;34.72;;
25824;SDS011;13658;44.534;18.694;2023-06-22T02:13:10;40.97;;;35.92;;
25824;SDS011;13658;44.534;18.694;2023-06-22T02:15:37;39.15;;;34.38;;
25824;SDS011;13658;44.534;18.694;2023-06-22T02:18:03;38.88;;;32.72;;
25824;SDS011;13658;44.534;18.694;2023-06-22T02:20:30;36.85;;;32.28;;
25824;SDS011;13658;44.534;18.694;2023-06-22T02:22:56;38.58;;;33.25;;
25824;SDS011;13658;44.534;18.694;2023-06-22T02:25:22;38.63;;;33.92;;
25824;SDS011;13658;44.534;18.694;2023-06-22T02:27:48;39.45;;;34.35;;
25824;SDS011;13658;44.534;18.694;2023-06-22T02:30:16;38.20;;;32.78;;
25824;SDS011;13658;44.534;18.694;2023-06-22T02:32:42;36.95;;;32.65;;
25824;SDS011;13658;44.534;18.694;2023-06-22T02:35:11;38.65;;;33.72;;
25824;SDS011;13658;44.534;18.694;2023-06-22T02:37:37;37.42;;;33.40;;
25824;SDS011;13658;44.534;18.694;2023-06-22T02:40:09;37.50;;;33.10;;
25824;SDS011;13658;44.534;18.694;2023-06-22T02:42:39;37.45;;;32.30;;
25824;SDS011;13658;44.534;18.694;2023-06-22T02:45:05;37.63;;;33.05;;
25824;SDS011;13658;44.534;18.694;2023-06-22T02:47:31;36.85;;;32.83;;
25824;SDS011;13658;44.534;18.694;2023-06-22T02:49:57;36.78;;;32.60;;
25824;SDS011;13658;44.534;18.694;2023-06-22T02:52:24;40.17;;;33.55;;
25824;SDS011;13658;44.534;18.694;2023-06-22T02:54:50;38.78;;;34.30;;
25824;SDS011;13658;44.534;18.694;2023-06-22T02:57:16;39.65;;;35.22;;
25824;SDS011;13658;44.534;18.694;2023-06-22T02:59:43;38.28;;;33.55;;
25824;SDS011;13658;44.534;18.694;2023-06-22T03:02:10;37.38;;;33.47;;
25824;SDS011;13658;44.534;18.694;2023-06-22T03:04:37;38.42;;;34.10;;
25824;SDS011;13658;44.534;18.694;2023-06-22T03:07:03;39.58;;;35.38;;
25824;SDS011;13658;44.534;18.694;2023-06-22T03:09:31;41.83;;;35.30;;
25824;SDS011;13658;44.534;18.694;2023-06-22T03:11:57;41.80;;;35.53;;
25824;SDS011;13658;44.534;18.694;2023-06-22T03:14:29;40.35;;;34.78;;
25824;SDS011;13658;44.534;18.694;2023-06-22T03:16:55;41.58;;;36.30;;
25824;SDS011;13658;44.534;18.694;2023-06-22T03:19:27;38.78;;;34.50;;
25824;SDS011;13658;44.534;18.694;2023-06-22T03:21:54;39.03;;;34.88;;
25824;SDS011;13658;44.534;18.694;2023-06-22T03:24:20;40.85;;;34.70;;
25824;SDS011;13658;44.534;18.694;2023-06-22T03:26:46;38.63;;;34.50;;
25824;SDS011;13658;44.534;18.694;2023-06-22T03:29:12;39.08;;;34.80;;
25824;SDS011;13658;44.534;18.694;2023-06-22T03:31:39;38.38;;;33.72;;
25824;SDS011;13658;44.534;18.694;2023-06-22T03:34:05;38.13;;;34.03;;
25824;SDS011;13658;44.534;18.694;2023-06-22T03:36:31;40.58;;;35.13;;
25824;SDS011;13658;44.534;18.694;2023-06-22T03:38:57;38.78;;;34.63;;
25824;SDS011;13658;44.534;18.694;2023-06-22T03:41:23;38.95;;;34.22;;
25824;SDS011;13658;44.534;18.694;2023-06-22T03:43:49;37.63;;;33.10;;
25824;SDS011;13658;44.534;18.694;2023-06-22T03:46:15;35.50;;;31.60;;
25824;SDS011;13658;44.534;18.694;2023-06-22T03:48:42;38.97;;;34.38;;
25824;SDS011;13658;44.534;18.694;2023-06-22T03:51:08;41.08;;;34.85;;
25824;SDS011;13658;44.534;18.694;2023-06-22T03:53:34;39.45;;;34.33;;
25824;SDS011;13658;44.534;18.694;2023-06-22T03:56:00;39.72;;;34.00;;
25824;SDS011;13658;44.534;18.694;2023-06-22T03:58:26;37.17;;;32.88;;
25824;SDS011;13658;44.534;18.694;2023-06-22T04:00:57;37.78;;;33.35;;
25824;SDS011;13658;44.534;18.694;2023-06-22T04:03:25;37.05;;;33.13;;
25824;SDS011;13658;44.534;18.694;2023-06-22T04:05:51;36.25;;;32.42;;
25824;SDS011;13658;44.534;18.694;2023-06-22T04:08:17;44.63;;;36.03;;
25824;SDS011;13658;44.534;18.694;2023-06-22T04:10:43;38.80;;;34.67;;
25824;SDS011;13658;44.534;18.694;2023-06-22T04:13:10;41.50;;;35.22;;
25824;SDS011;13658;44.534;18.694;2023-06-22T04:15:36;40.42;;;34.17;;
25824;SDS011;13658;44.534;18.694;2023-06-22T04:18:02;37.65;;;33.58;;
25824;SDS011;13658;44.534;18.694;2023-06-22T04:20:28;39.65;;;33.05;;
25824;SDS011;13658;44.534;18.694;2023-06-22T04:22:54;37.25;;;33.25;;
25824;SDS011;13658;44.534;18.694;2023-06-22T04:25:20;35.92;;;31.65;;
25824;SDS011;13658;44.534;18.694;2023-06-22T04:27:47;38.25;;;33.97;;
25824;SDS011;13658;44.534;18.694;2023-06-22T04:30:13;36.00;;;32.13;;
25824;SDS011;13658;44.534;18.694;2023-06-22T04:32:43;34.38;;;30.88;;
25824;SDS011;13658;44.534;18.694;2023-06-22T04:35:10;33.35;;;29.73;;
25824;SDS011;13658;44.534;18.694;2023-06-22T04:37:37;38.55;;;32.63;;
25824;SDS011;13658;44.534;18.694;2023-06-22T04:40:04;33.45;;;29.85;;
25824;SDS011;13658;44.534;18.694;2023-06-22T04:42:33;33.72;;;30.20;;
25824;SDS011;13658;44.534;18.694;2023-06-22T04:45:00;33.00;;;29.48;;
25824;SDS011;13658;44.534;18.694;2023-06-22T04:47:26;34.88;;;30.67;;
25824;SDS011;13658;44.534;18.694;2023-06-22T04:49:52;38.35;;;32.78;;
25824;SDS011;13658;44.534;18.694;2023-06-22T04:52:18;51.00;;;36.92;;
25824;SDS011;13658;44.534;18.694;2023-06-22T04:54:45;39.38;;;32.67;;
25824;SDS011;13658;44.534;18.694;2023-06-22T04:57:15;37.22;;;31.58;;
25824;SDS011;13658;44.534;18.694;2023-06-22T04:59:42;39.75;;;32.78;;
25824;SDS011;13658;44.534;18.694;2023-06-22T05:02:08;36.42;;;30.63;;
25824;SDS011;13658;44.534;18.694;2023-06-22T05:04:34;33.05;;;29.58;;
25824;SDS011;13658;44.534;18.694;2023-06-22T05:07:09;34.08;;;29.17;;
25824;SDS011;13658;44.534;18.694;2023-06-22T05:09:35;32.75;;;27.92;;
25824;SDS011;13658;44.534;18.694;2023-06-22T05:12:01;31.85;;;28.25;;
25824;SDS011;13658;44.534;18.694;2023-06-22T05:14:28;32.83;;;29.40;;
25824;SDS011;13658;44.534;18.694;2023-06-22T05:16:55;33.33;;;28.58;;
25824;SDS011;13658;44.534;18.694;2023-06-22T05:19:24;33.33;;;29.63;;
25824;SDS011;13658;44.534;18.694;2023-06-22T05:21:56;33.25;;;28.55;;
25824;SDS011;13658;44.534;18.694;2023-06-22T05:24:22;34.78;;;30.65;;
25824;SDS011;13658;44.534;18.694;2023-06-22T05:26:48;33.85;;;30.20;;
25824;SDS011;13658;44.534;18.694;2023-06-22T05:29:14;33.00;;;29.50;;
25824;SDS011;13658;44.534;18.694;2023-06-22T05:31:40;33.20;;;29.60;;
25824;SDS011;13658;44.534;18.694;2023-06-22T05:34:06;32.17;;;28.77;;
25824;SDS011;13658;44.534;18.694;2023-06-22T05:36:32;33.50;;;29.88;;
25824;SDS011;13658;44.534;18.694;2023-06-22T05:38:58;33.47;;;29.88;;
25824;SDS011;13658;44.534;18.694;2023-06-22T05:41:24;34.55;;;30.85;;
25824;SDS011;13658;44.534;18.694;2023-06-22T05:43:50;34.42;;;30.08;;
25824;SDS011;13658;44.534;18.694;2023-06-22T05:46:16;34.85;;;30.75;;
25824;SDS011;13658;44.534;18.694;2023-06-22T05:48:42;33.40;;;29.73;;
25824;SDS011;13658;44.534;18.694;2023-06-22T05:51:08;35.47;;;31.05;;
25824;SDS011;13658;44.534;18.694;2023-06-22T05:53:34;35.08;;;30.88;;
25824;SDS011;13658;44.534;18.694;2023-06-22T05:56:00;42.03;;;35.55;;
25824;SDS011;13658;44.534;18.694;2023-06-22T05:58:26;33.63;;;30.08;;
25824;SDS011;13658;44.534;18.694;2023-06-22T06:00:52;36.05;;;32.15;;
25824;SDS011;13658;44.534;18.694;2023-06-22T06:03:18;36.00;;;32.10;;
25824;SDS011;13658;44.534;18.694;2023-06-22T06:05:44;34.55;;;30.95;;
25824;SDS011;13658;44.534;18.694;2023-06-22T06:08:10;35.75;;;31.98;;
25824;SDS011;13658;44.534;18.694;2023-06-22T06:10:37;36.83;;;30.95;;
25824;SDS011;13658;44.534;18.694;2023-06-22T06:13:03;36.42;;;32.22;;
25824;SDS011;13658;44.534;18.694;2023-06-22T06:15:32;35.22;;;31.35;;
25824;SDS011;13658;44.534;18.694;2023-06-22T06:17:59;34.97;;;31.17;;
25824;SDS011;13658;44.534;18.694;2023-06-22T06:20:26;37.58;;;31.17;;
25824;SDS011;13658;44.534;18.694;2023-06-22T06:22:55;34.17;;;30.45;;
25824;SDS011;13658;44.534;18.694;2023-06-22T06:25:21;33.80;;;30.30;;
25824;SDS011;13658;44.534;18.694;2023-06-22T06:27:47;32.78;;;29.40;;
25824;SDS011;13658;44.534;18.694;2023-06-22T06:30:15;32.50;;;28.85;;
25824;SDS011;13658;44.534;18.694;2023-06-22T06:32:42;34.65;;;30.95;;
25824;SDS011;13658;44.534;18.694;2023-06-22T06:35:11;38.03;;;31.30;;
25824;SDS011;13658;44.534;18.694;2023-06-22T06:37:38;35.80;;;32.05;;
25824;SDS011;13658;44.534;18.694;2023-06-22T06:40:09;35.95;;;32.50;;
25824;SDS011;13658;44.534;18.694;2023-06-22T06:42:42;32.45;;;29.05;;
25824;SDS011;13658;44.534;18.694;2023-06-22T06:45:11;34.58;;;30.92;;
25824;SDS011;13658;44.534;18.694;2023-06-22T06:47:39;34.55;;;30.98;;
25824;SDS011;13658;44.534;18.694;2023-06-22T06:50:05;33.95;;;30.45;;
25824;SDS011;13658;44.534;18.694;2023-06-22T06:52:33;36.30;;;30.95;;
25824;SDS011;13658;44.534;18.694;2023-06-22T06:55:00;34.90;;;31.08;;
25824;SDS011;13658;44.534;18.694;2023-06-22T06:57:27;37.50;;;29.55;;
25824;SDS011;13658;44.534;18.694;2023-06-22T06:59:56;38.00;;;33.15;;
25824;SDS011;13658;44.534;18.694;2023-06-22T07:02:23;35.45;;;31.33;;
25824;SDS011;13658;44.534;18.694;2023-06-22T07:04:49;36.30;;;31.95;;
25824;SDS011;13658;44.534;18.694;2023-06-22T07:07:16;41.13;;;36.85;;
25824;SDS011;13658;44.534;18.694;2023-06-22T07:09:42;55.55;;;49.55;;
25824;SDS011;13658;44.534;18.694;2023-06-22T07:12:08;36.08;;;32.22;;
25824;SDS011;13658;44.534;18.694;2023-06-22T07:14:34;35.00;;;31.30;;
25824;SDS011;13658;44.534;18.694;2023-06-22T07:17:00;36.08;;;32.25;;
25824;SDS011;13658;44.534;18.694;2023-06-22T07:19:26;35.80;;;32.30;;
25824;SDS011;13658;44.534;18.694;2023-06-22T07:21:53;33.85;;;30.45;;
25824;SDS011;13658;44.534;18.694;2023-06-22T07:24:20;35.25;;;31.65;;
25824;SDS011;13658;44.534;18.694;2023-06-22T07:26:49;36.33;;;32.63;;
25824;SDS011;13658;44.534;18.694;2023-06-22T07:29:21;36.63;;;32.58;;
25824;SDS011;13658;44.534;18.694;2023-06-22T07:31:48;35.42;;;31.75;;
25824;SDS011;13658;44.534;18.694;2023-06-22T07:34:16;37.97;;;33.00;;
25824;SDS011;13658;44.534;18.694;2023-06-22T07:36:43;35.45;;;31.75;;
25824;SDS011;13658;44.534;18.694;2023-06-22T07:39:09;36.25;;;32.55;;
25824;SDS011;13658;44.534;18.694;2023-06-22T07:41:35;33.35;;;29.50;;
25824;SDS011;13658;44.534;18.694;2023-06-22T07:44:02;31.90;;;28.92;;
25824;SDS011;13658;44.534;18.694;2023-06-22T07:46:28;31.08;;;28.02;;
25824;SDS011;13658;44.534;18.694;2023-06-22T07:48:55;31.30;;;28.40;;
25824;SDS011;13658;44.534;18.694;2023-06-22T07:51:22;37.70;;;33.70;;
25824;SDS011;13658;44.534;18.694;2023-06-22T07:53:49;32.58;;;29.48;;
25824;SDS011;13658;44.534;18.694;2023-06-22T07:56:15;34.55;;;31.10;;
25824;SDS011;13658;44.534;18.694;2023-06-22T07:58:45;35.22;;;30.67;;
25824;SDS011;13658;44.534;18.694;2023-06-22T08:01:11;35.30;;;31.70;;
25824;SDS011;13658;44.534;18.694;2023-06-22T08:03:39;35.25;;;31.38;;
25824;SDS011;13658;44.534;18.694;2023-06-22T08:06:06;40.75;;;36.72;;
25824;SDS011;13658;44.534;18.694;2023-06-22T08:08:34;33.55;;;30.40;;
25824;SDS011;13658;44.534;18.694;2023-06-22T08:11:01;35.00;;;31.52;;
25824;SDS011;13658;44.534;18.694;2023-06-22T08:13:27;32.45;;;29.45;;
25824;SDS011;13658;44.534;18.694;2023-06-22T08:15:53;30.67;;;27.77;;
25824;SDS011;13658;44.534;18.694;2023-06-22T08:18:19;31.85;;;28.55;;
25824;SDS011;13658;44.534;18.694;2023-06-22T08:20:45;32.53;;;29.00;;
25824;SDS011;13658;44.534;18.694;2023-06-22T08:23:11;33.95;;;30.65;;
25824;SDS011;13658;44.534;18.694;2023-06-22T08:25:37;34.08;;;30.88;;
25824;SDS011;13658;44.534;18.694;2023-06-22T08:28:05;35.33;;;31.70;;
25824;SDS011;13658;44.534;18.694;2023-06-22T08:30:35;33.00;;;29.92;;
25824;SDS011;13658;44.534;18.694;2023-06-22T08:33:01;31.48;;;28.50;;
25824;SDS011;13658;44.534;18.694;2023-06-22T08:35:27;32.15;;;29.30;;
25824;SDS011;13658;44.534;18.694;2023-06-22T08:37:54;29.98;;;27.15;;
25824;SDS011;13658;44.534;18.694;2023-06-22T08:40:22;28.92;;;26.15;;
25824;SDS011;13658;44.534;18.694;2023-06-22T08:42:48;30.85;;;28.13;;
25824;SDS011;13658;44.534;18.694;2023-06-22T08:45:14;30.75;;;27.98;;
25824;SDS011;13658;44.534;18.694;2023-06-22T08:47:41;35.88;;;32.72;;
25824;SDS011;13658;44.534;18.694;2023-06-22T08:50:08;39.33;;;35.72;;
25824;SDS011;13658;44.534;18.694;2023-06-22T08:52:38;41.33;;;37.17;;
25824;SDS011;13658;44.534;18.694;2023-06-22T08:55:08;37.60;;;34.00;;
25824;SDS011;13658;44.534;18.694;2023-06-22T08:57:35;33.53;;;30.52;;
25824;SDS011;13658;44.534;18.694;2023-06-22T09:00:07;34.17;;;30.88;;
25824;SDS011;13658;44.534;18.694;2023-06-22T09:02:40;33.88;;;30.45;;
25824;SDS011;13658;44.534;18.694;2023-06-22T09:05:06;36.03;;;32.38;;
25824;SDS011;13658;44.534;18.694;2023-06-22T09:07:32;33.50;;;30.48;;
25824;SDS011;13658;44.534;18.694;2023-06-22T09:09:59;34.33;;;31.13;;
25824;SDS011;13658;44.534;18.694;2023-06-22T09:12:25;35.53;;;32.13;;
25824;SDS011;13658;44.534;18.694;2023-06-22T09:14:52;32.92;;;29.88;;
25824;SDS011;13658;44.534;18.694;2023-06-22T09:17:19;33.13;;;29.75;;
25824;SDS011;13658;44.534;18.694;2023-06-22T09:19:45;36.08;;;32.70;;
25824;SDS011;13658;44.534;18.694;2023-06-22T09:22:11;33.75;;;30.65;;
25824;SDS011;13658;44.534;18.694;2023-06-22T09:24:37;32.85;;;29.65;;
25824;SDS011;13658;44.534;18.694;2023-06-22T09:27:03;31.25;;;28.48;;
25824;SDS011;13658;44.534;18.694;2023-06-22T09:29:29;33.25;;;29.77;;
25824;SDS011;13658;44.534;18.694;2023-06-22T09:31:58;32.22;;;29.20;;
25824;SDS011;13658;44.534;18.694;2023-06-22T09:34:25;31.60;;;28.77;;
25824;SDS011;13658;44.534;18.694;2023-06-22T09:36:51;29.85;;;27.05;;
25824;SDS011;13658;44.534;18.694;2023-06-22T09:39:20;29.10;;;26.58;;
25824;SDS011;13658;44.534;18.694;2023-06-22T09:41:46;31.73;;;28.75;;
25824;SDS011;13658;44.534;18.694;2023-06-22T09:44:12;30.65;;;27.77;;
25824;SDS011;13658;44.534;18.694;2023-06-22T09:46:38;30.67;;;27.95;;
25824;SDS011;13658;44.534;18.694;2023-06-22T09:49:03;30.85;;;28.02;;
25824;SDS011;13658;44.534;18.694;2023-06-22T09:51:29;33.90;;;30.80;;
25824;SDS011;13658;44.534;18.694;2023-06-22T09:53:55;33.92;;;30.60;;
25824;SDS011;13658;44.534;18.694;2023-06-22T09:56:21;30.80;;;27.73;;
25824;SDS011;13658;44.534;18.694;2023-06-22T09:58:48;30.70;;;27.48;;
25824;SDS011;13658;44.534;18.694;2023-06-22T10:01:18;30.10;;;27.02;;
25824;SDS011;13658;44.534;18.694;2023-06-22T10:03:44;27.42;;;24.83;;
25824;SDS011;13658;44.534;18.694;2023-06-22T10:06:10;28.35;;;25.55;;
25824;SDS011;13658;44.534;18.694;2023-06-22T10:08:36;27.45;;;24.90;;
25824;SDS011;13658;44.534;18.694;2023-06-22T10:11:02;28.23;;;25.08;;
25824;SDS011;13658;44.534;18.694;2023-06-22T10:13:29;41.80;;;37.67;;
25824;SDS011;13658;44.534;18.694;2023-06-22T10:15:55;31.35;;;28.60;;
25824;SDS011;13658;44.534;18.694;2023-06-22T10:18:21;30.73;;;27.92;;
25824;SDS011;13658;44.534;18.694;2023-06-22T10:20:48;32.42;;;29.02;;
25824;SDS011;13658;44.534;18.694;2023-06-22T10:23:19;28.25;;;25.35;;
25824;SDS011;13658;44.534;18.694;2023-06-22T10:25:45;29.42;;;26.67;;
25824;SDS011;13658;44.534;18.694;2023-06-22T10:28:12;27.58;;;25.08;;
25824;SDS011;13658;44.534;18.694;2023-06-22T10:30:38;25.48;;;22.92;;
25824;SDS011;13658;44.534;18.694;2023-06-22T10:33:10;23.95;;;21.90;;
25824;SDS011;13658;44.534;18.694;2023-06-22T10:35:37;25.95;;;23.33;;
25824;SDS011;13658;44.534;18.694;2023-06-22T10:38:03;25.02;;;22.58;;
25824;SDS011;13658;44.534;18.694;2023-06-22T10:40:29;28.58;;;25.67;;
25824;SDS011;13658;44.534;18.694;2023-06-22T10:42:56;26.08;;;23.67;;
25824;SDS011;13658;44.534;18.694;2023-06-22T10:45:22;26.52;;;24.13;;
25824;SDS011;13658;44.534;18.694;2023-06-22T10:47:48;25.10;;;22.90;;
25824;SDS011;13658;44.534;18.694;2023-06-22T10:50:14;30.30;;;27.70;;
25824;SDS011;13658;44.534;18.694;2023-06-22T10:52:41;26.42;;;23.75;;
25824;SDS011;13658;44.534;18.694;2023-06-22T10:55:08;25.73;;;23.08;;
25824;SDS011;13658;44.534;18.694;2023-06-22T10:57:35;27.80;;;24.98;;
25824;SDS011;13658;44.534;18.694;2023-06-22T11:00:02;25.95;;;23.42;;
25824;SDS011;13658;44.534;18.694;2023-06-22T11:02:31;26.77;;;22.80;;
25824;SDS011;13658;44.534;18.694;2023-06-22T11:04:57;26.55;;;23.90;;
25824;SDS011;13658;44.534;18.694;2023-06-22T11:07:25;26.38;;;23.00;;
25824;SDS011;13658;44.534;18.694;2023-06-22T11:09:54;24.58;;;21.98;;
25824;SDS011;13658;44.534;18.694;2023-06-22T11:12:20;30.70;;;23.75;;
25824;SDS011;13658;44.534;18.694;2023-06-22T11:14:46;26.98;;;22.77;;
25824;SDS011;13658;44.534;18.694;2023-06-22T11:17:12;24.05;;;21.48;;
25824;SDS011;13658;44.534;18.694;2023-06-22T11:19:38;26.55;;;23.70;;
25824;SDS011;13658;44.534;18.694;2023-06-22T11:22:04;23.23;;;20.90;;
25824;SDS011;13658;44.534;18.694;2023-06-22T11:24:30;22.40;;;19.58;;
25824;SDS011;13658;44.534;18.694;2023-06-22T11:26:56;21.50;;;18.42;;
25824;SDS011;13658;44.534;18.694;2023-06-22T11:29:22;23.02;;;19.88;;
25824;SDS011;13658;44.534;18.694;2023-06-22T11:31:48;24.55;;;19.08;;
25824;SDS011;13658;44.534;18.694;2023-06-22T11:34:14;22.30;;;19.25;;
25824;SDS011;13658;44.534;18.694;2023-06-22T11:36:41;22.85;;;20.23;;
25824;SDS011;13658;44.534;18.694;2023-06-22T11:39:08;23.50;;;19.42;;
25824;SDS011;13658;44.534;18.694;2023-06-22T11:41:35;21.35;;;18.85;;
25824;SDS011;13658;44.534;18.694;2023-06-22T11:44:01;26.20;;;20.77;;
25824;SDS011;13658;44.534;18.694;2023-06-22T11:46:27;22.95;;;18.83;;
25824;SDS011;13658;44.534;18.694;2023-06-22T11:48:53;21.10;;;18.90;;
25824;SDS011;13658;44.534;18.694;2023-06-22T11:51:19;20.13;;;16.55;;
25824;SDS011;13658;44.534;18.694;2023-06-22T11:53:45;22.25;;;17.60;;
25824;SDS011;13658;44.534;18.694;2023-06-22T11:56:11;26.95;;;20.02;;
25824;SDS011;13658;44.534;18.694;2023-06-22T11:58:37;26.90;;;20.98;;
25824;SDS011;13658;44.534;18.694;2023-06-22T12:01:03;25.83;;;20.73;;
25824;SDS011;13658;44.534;18.694;2023-06-22T12:03:30;21.10;;;18.60;;
25824;SDS011;13658;44.534;18.694;2023-06-22T12:05:56;22.83;;;18.42;;
25824;SDS011;13658;44.534;18.694;2023-06-22T12:08:22;19.80;;;17.42;;
25824;SDS011;13658;44.534;18.694;2023-06-22T12:10:49;20.00;;;16.77;;
25824;SDS011;13658;44.534;18.694;2023-06-22T12:13:15;20.25;;;16.35;;
25824;SDS011;13658;44.534;18.694;2023-06-22T12:15:41;19.58;;;17.00;;
25824;SDS011;13658;44.534;18.694;2023-06-22T12:18:07;21.05;;;16.50;;
25824;SDS011;13658;44.534;18.694;2023-06-22T12:20:34;20.67;;;16.00;;
25824;SDS011;13658;44.534;18.694;2023-06-22T12:23:01;17.15;;;14.30;;
25824;SDS011;13658;44.534;18.694;2023-06-22T12:25:27;15.35;;;13.68;;
25824;SDS011;13658;44.534;18.694;2023-06-22T12:27:53;15.48;;;13.38;;
25824;SDS011;13658;44.534;18.694;2023-06-22T12:30:19;19.33;;;15.95;;
25824;SDS011;13658;44.534;18.694;2023-06-22T12:32:45;20.92;;;16.73;;
25824;SDS011;13658;44.534;18.694;2023-06-22T12:35:11;18.13;;;15.82;;
25824;SDS011;13658;44.534;18.694;2023-06-22T12:37:40;19.85;;;16.77;;
25824;SDS011;13658;44.534;18.694;2023-06-22T12:40:07;19.15;;;16.52;;
25824;SDS011;13658;44.534;18.694;2023-06-22T12:42:34;18.95;;;16.00;;
25824;SDS011;13658;44.534;18.694;2023-06-22T12:45:00;21.08;;;16.80;;
25824;SDS011;13658;44.534;18.694;2023-06-22T12:47:26;19.70;;;16.35;;
25824;SDS011;13658;44.534;18.694;2023-06-22T12:49:52;18.08;;;16.10;;
25824;SDS011;13658;44.534;18.694;2023-06-22T12:52:18;19.65;;;16.75;;
25824;SDS011;13658;44.534;18.694;2023-06-22T12:54:44;23.25;;;17.70;;
25824;SDS011;13658;44.534;18.694;2023-06-22T12:57:10;17.98;;;16.08;;
25824;SDS011;13658;44.534;18.694;2023-06-22T12:59:36;19.38;;;16.50;;
25824;SDS011;13658;44.534;18.694;2023-06-22T13:02:02;19.08;;;15.63;;
25824;SDS011;13658;44.534;18.694;2023-06-22T13:04:28;20.75;;;18.73;;
25824;SDS011;13658;44.534;18.694;2023-06-22T13:06:54;21.35;;;17.10;;
25824;SDS011;13658;44.534;18.694;2023-06-22T13:09:20;20.20;;;18.05;;
25824;SDS011;13658;44.534;18.694;2023-06-22T13:11:46;26.13;;;22.33;;
25824;SDS011;13658;44.534;18.694;2023-06-22T13:14:12;24.42;;;18.45;;
25824;SDS011;13658;44.534;18.694;2023-06-22T13:16:38;20.83;;;18.33;;
25824;SDS011;13658;44.534;18.694;2023-06-22T13:19:04;24.95;;;20.52;;
25824;SDS011;13658;44.534;18.694;2023-06-22T13:21:30;19.77;;;17.67;;
25824;SDS011;13658;44.534;18.694;2023-06-22T13:23:56;22.70;;;20.33;;
25824;SDS011;13658;44.534;18.694;2023-06-22T13:26:23;21.45;;;18.92;;
25824;SDS011;13658;44.534;18.694;2023-06-22T13:28:50;22.38;;;19.55;;
25824;SDS011;13658;44.534;18.694;2023-06-22T13:31:15;23.50;;;19.20;;
25824;SDS011;13658;44.534;18.694;2023-06-22T13:33:42;20.67;;;17.98;;
25824;SDS011;13658;44.534;18.694;2023-06-22T13:36:09;22.52;;;18.52;;
25824;SDS011;13658;44.534;18.694;2023-06-22T13:38:35;20.40;;;18.30;;
25824;SDS011;13658;44.534;18.694;2023-06-22T13:41:04;24.33;;;18.00;;
25824;SDS011;13658;44.534;18.694;2023-06-22T13:43:30;20.88;;;18.73;;
25824;SDS011;13658;44.534;18.694;2023-06-22T13:45:58;24.10;;;18.17;;
25824;SDS011;13658;44.534;18.694;2023-06-22T13:48:24;22.23;;;18.20;;
25824;SDS011;13658;44.534;18.694;2023-06-22T13:50:53;25.27;;;18.73;;
25824;SDS011;13658;44.534;18.694;2023-06-22T13:53:20;20.58;;;17.30;;
25824;SDS011;13658;44.534;18.694;2023-06-22T13:55:46;22.33;;;18.92;;
25824;SDS011;13658;44.534;18.694;2023-06-22T13:58:13;22.38;;;19.98;;
25824;SDS011;13658;44.534;18.694;2023-06-22T14:00:39;21.73;;;19.38;;
25824;SDS011;13658;44.534;18.694;2023-06-22T14:03:05;21.27;;;17.25;;
25824;SDS011;13658;44.534;18.694;2023-06-22T14:05:31;25.05;;;19.55;;
25824;SDS011;13658;44.534;18.694;2023-06-22T14:07:57;21.52;;;16.70;;
25824;SDS011;13658;44.534;18.694;2023-06-22T14:10:23;22.90;;;17.08;;
25824;SDS011;13658;44.534;18.694;2023-06-22T14:12:51;19.80;;;14.95;;
25824;SDS011;13658;44.534;18.694;2023-06-22T14:15:18;21.17;;;18.98;;
25824;SDS011;13658;44.534;18.694;2023-06-22T14:17:44;23.60;;;17.63;;